Time;durP1;ratioP1;P1;durP2;ratioP2;P2;SDS_P1;SDS_P2;PMS_P1;PMS_P2;Temp;Humidity;BMP_temperature;BMP_pressure;BME280_temperature;BME280_humidity;BME280_pressure;Samples;Min_cycle;Max_cycle;Signal;HPM_P1;HPM_P2
2022/04/16 00:01:53;;;;;;;;;21.25;19.00;;;;;;;;5044296;28;45416;-72
2022/04/16 00:04:19;;;;;;;;;19.00;18.50;;;;;;;;5056178;28;46066;-72
2022/04/16 00:06:44;;;;;;;;;20.25;20.00;;;;;;;;5055898;28;45316;-71
2022/04/16 00:09:09;;;;;;;;;19.75;17.50;;;;;;;;5055589;28;45517;-71
2022/04/16 00:11:36;;;;;;;;;17.50;17.25;;;;;;;;5057653;28;45405;-72
2022/04/16 00:14:03;;;;;;;;;21.00;18.25;;;;;;;;5057466;28;46360;-72
2022/04/16 00:16:29;;;;;;;;;23.75;22.00;;;;;;;;5057224;28;45922;-72
2022/04/16 00:18:56;;;;;;;;;25.25;22.00;;;;;;;;5057458;28;45390;-71
2022/04/16 00:21:22;;;;;;;;;20.25;19.00;;;;;;;;5055901;28;45655;-72
2022/04/16 00:23:48;;;;;;;;;25.75;23.25;;;;;;;;5056765;28;45674;-71
2022/04/16 00:26:14;;;;;;;;;26.00;25.00;;;;;;;;5057541;28;45441;-71
2022/04/16 00:28:39;;;;;;;;;25.50;24.75;;;;;;;;5057275;28;45463;-71
2022/04/16 00:31:05;;;;;;;;;32.00;24.00;;;;;;;;5057324;28;45354;-71
2022/04/16 00:33:31;;;;;;;;;24.00;20.75;;;;;;;;5055720;28;45492;-70
2022/04/16 00:35:57;;;;;;;;;14.25;13.25;;;;;;;;5057140;28;45816;-72
2022/04/16 00:38:22;;;;;;;;;30.50;25.25;;;;;;;;5055942;28;45623;-71
2022/04/16 00:40:48;;;;;;;;;24.00;22.50;;;;;;;;5057401;28;45483;-71
2022/04/16 00:43:20;;;;;;;;;29.25;25.50;;;;;;;;5057338;28;45998;-71
2022/04/16 00:45:45;;;;;;;;;20.25;20.25;;;;;;;;5053881;28;45400;-70
2022/04/16 00:48:11;;;;;;;;;25.00;23.25;;;;;;;;5055002;28;45381;-71
2022/04/16 00:50:36;;;;;;;;;25.00;23.75;;;;;;;;5056826;28;45254;-71
2022/04/16 00:53:02;;;;;;;;;26.25;23.50;;;;;;;;5056607;28;46192;-72
2022/04/16 00:55:27;;;;;;;;;27.00;25.00;;;;;;;;5056360;28;45338;-72
2022/04/16 00:57:52;;;;;;;;;27.25;22.00;;;;;;;;5054699;28;45374;-71
2022/04/16 01:00:18;;;;;;;;;25.50;23.50;;;;;;;;5055812;28;45421;-71
2022/04/16 01:02:43;;;;;;;;;30.00;24.50;;;;;;;;5056935;28;46493;-72
2022/04/16 01:05:12;;;;;;;;;25.00;22.25;;;;;;;;5055484;28;45585;-72
2022/04/16 01:07:47;;;;;;;;;23.50;22.75;;;;;;;;5057118;28;45449;-72
2022/04/16 01:10:12;;;;;;;;;30.75;25.75;;;;;;;;5058834;28;45324;-72
2022/04/16 01:12:38;;;;;;;;;29.25;24.75;;;;;;;;5057051;28;46057;-72
2022/04/16 01:15:03;;;;;;;;;25.75;23.50;;;;;;;;5055921;28;45422;-72
2022/04/16 01:17:28;;;;;;;;;28.25;22.50;;;;;;;;5058069;28;45529;-72
2022/04/16 01:19:57;;;;;;;;;26.00;24.00;;;;;;;;5058471;28;45445;-72
2022/04/16 01:22:29;;;;;;;;;26.00;22.75;;;;;;;;5058021;28;45591;-72
2022/04/16 01:24:54;;;;;;;;;28.00;26.50;;;;;;;;5058137;28;45429;-71
2022/04/16 01:27:20;;;;;;;;;25.75;24.50;;;;;;;;5057240;28;45907;-72
2022/04/16 01:29:47;;;;;;;;;31.00;29.00;;;;;;;;5050981;28;45456;-72
2022/04/16 01:32:12;;;;;;;;;25.25;22.75;;;;;;;;5057389;28;45504;-71
2022/04/16 01:34:38;;;;;;;;;30.25;25.75;;;;;;;;5058054;28;45844;-71
2022/04/16 01:37:04;;;;;;;;;31.00;27.50;;;;;;;;5058206;28;45384;-72
2022/04/16 01:39:30;;;;;;;;;25.50;22.75;;;;;;;;5058160;28;45330;-70
2022/04/16 01:41:57;;;;;;;;;26.25;23.75;;;;;;;;5056775;28;45603;-72
2022/04/16 01:44:22;;;;;;;;;24.25;23.00;;;;;;;;5057573;28;45288;-72
2022/04/16 01:46:48;;;;;;;;;25.00;24.00;;;;;;;;5057893;28;45429;-72
2022/04/16 01:49:13;;;;;;;;;27.00;24.25;;;;;;;;5056678;28;45495;-72
2022/04/16 01:51:38;;;;;;;;;33.00;26.50;;;;;;;;5055276;28;45457;-73
2022/04/16 01:54:04;;;;;;;;;26.00;23.00;;;;;;;;5057958;28;45303;-73
2022/04/16 01:56:29;;;;;;;;;37.00;29.25;;;;;;;;5056925;28;45761;-71
2022/04/16 01:58:55;;;;;;;;;31.75;30.00;;;;;;;;5056728;28;45247;-71
2022/04/16 02:01:22;;;;;;;;;34.75;30.00;;;;;;;;5057581;28;45588;-71
2022/04/16 02:03:47;;;;;;;;;27.50;25.75;;;;;;;;5056616;28;45380;-70
2022/04/16 02:06:12;;;;;;;;;38.75;32.00;;;;;;;;5057586;28;45534;-70
2022/04/16 02:08:38;;;;;;;;;34.25;31.25;;;;;;;;5057935;28;45503;-72
2022/04/16 02:11:03;;;;;;;;;39.75;33.50;;;;;;;;5055581;28;45276;-71
2022/04/16 02:13:29;;;;;;;;;39.00;33.25;;;;;;;;5055944;28;45580;-72
2022/04/16 02:15:56;;;;;;;;;37.50;32.00;;;;;;;;5057446;28;45553;-71
2022/04/16 02:18:23;;;;;;;;;39.25;32.75;;;;;;;;5056175;28;45606;-71
2022/04/16 02:20:49;;;;;;;;;36.25;31.25;;;;;;;;5057545;28;45146;-70
2022/04/16 02:23:14;;;;;;;;;32.50;30.00;;;;;;;;5057202;28;45323;-72
2022/04/16 02:25:42;;;;;;;;;29.75;26.00;;;;;;;;5048152;28;45875;-71
2022/04/16 02:28:08;;;;;;;;;31.25;27.75;;;;;;;;5036718;28;45418;-72
2022/04/16 02:30:33;;;;;;;;;26.75;24.50;;;;;;;;5051145;28;46132;-71
2022/04/16 02:32:59;;;;;;;;;26.75;23.00;;;;;;;;5040152;28;45576;-70
2022/04/16 02:35:24;;;;;;;;;29.00;27.00;;;;;;;;5047816;28;45473;-71
2022/04/16 02:37:50;;;;;;;;;29.00;25.25;;;;;;;;5048301;28;45649;-70
2022/04/16 02:40:15;;;;;;;;;27.00;24.00;;;;;;;;5040247;28;46395;-70
2022/04/16 02:42:42;;;;;;;;;27.50;26.25;;;;;;;;5059358;28;46133;-70
2022/04/16 02:47:53;;;;;;;;;26.25;24.75;;;;;;;;5040120;28;45390;-70
2022/04/16 02:50:19;;;;;;;;;27.00;24.75;;;;;;;;5039708;28;46055;-70
2022/04/16 02:52:46;;;;;;;;;27.00;25.25;;;;;;;;5040383;28;45386;-70
2022/04/16 02:55:15;;;;;;;;;33.50;30.50;;;;;;;;5040196;28;45374;-71
2022/04/16 02:57:40;;;;;;;;;26.25;23.75;;;;;;;;5039107;28;45299;-70
2022/04/16 03:00:06;;;;;;;;;30.00;25.75;;;;;;;;5039942;28;45419;-70
2022/04/16 03:02:32;;;;;;;;;28.25;27.00;;;;;;;;5039986;28;45418;-70
2022/04/16 03:04:57;;;;;;;;;24.50;23.00;;;;;;;;5039720;28;45461;-70
2022/04/16 03:07:22;;;;;;;;;26.00;22.00;;;;;;;;5054952;28;45549;-70
2022/04/16 03:09:47;;;;;;;;;26.75;24.00;;;;;;;;5042480;28;45346;-70
2022/04/16 03:12:13;;;;;;;;;23.50;22.25;;;;;;;;5052573;28;45334;-70
2022/04/16 03:17:34;;;;;;;;;26.00;23.00;;;;;;;;5043312;28;45485;-70
2022/04/16 03:20:09;;;;;;;;;27.00;22.25;;;;;;;;5039448;28;45434;-72
2022/04/16 03:22:34;;;;;;;;;28.50;25.25;;;;;;;;5039917;28;45953;-72
2022/04/16 03:25:03;;;;;;;;;29.00;26.50;;;;;;;;5039949;28;45500;-71
2022/04/16 03:27:29;;;;;;;;;28.00;24.75;;;;;;;;5040109;28;45438;-71
2022/04/16 03:29:54;;;;;;;;;26.50;25.00;;;;;;;;5043071;28;46203;-71
2022/04/16 03:32:19;;;;;;;;;27.00;24.00;;;;;;;;5050170;28;45428;-70
2022/04/16 03:34:45;;;;;;;;;26.75;24.00;;;;;;;;5049690;28;45427;-70
2022/04/16 03:37:10;;;;;;;;;27.00;23.50;;;;;;;;5040871;28;45460;-70
2022/04/16 03:39:35;;;;;;;;;26.25;24.00;;;;;;;;5059270;28;45445;-70
2022/04/16 03:42:01;;;;;;;;;23.75;22.25;;;;;;;;5059638;28;45431;-71
2022/04/16 03:44:26;;;;;;;;;26.75;26.00;;;;;;;;5059837;28;45320;-73
2022/04/16 03:46:51;;;;;;;;;25.50;22.00;;;;;;;;5060063;28;45457;-72
2022/04/16 03:49:17;;;;;;;;;25.00;22.50;;;;;;;;5058455;28;46112;-72
2022/04/16 03:51:42;;;;;;;;;20.50;19.25;;;;;;;;5058089;28;45528;-71
2022/04/16 04:02:19;;;;;;;;;30.75;26.00;;;;;;;;5054199;28;45471;-71
2022/04/16 04:04:46;;;;;;;;;26.75;25.00;;;;;;;;5052265;28;45499;-70
2022/04/16 04:07:12;;;;;;;;;29.50;25.25;;;;;;;;5040840;28;45660;-70
2022/04/16 04:09:40;;;;;;;;;24.00;23.00;;;;;;;;5038912;28;45489;-72
2022/04/16 04:12:09;;;;;;;;;33.25;27.00;;;;;;;;5051625;28;45485;-71
2022/04/16 04:14:36;;;;;;;;;27.25;24.00;;;;;;;;5039656;28;45357;-70
2022/04/16 04:17:01;;;;;;;;;27.00;23.50;;;;;;;;5056781;28;45452;-71
2022/04/16 04:19:27;;;;;;;;;24.50;21.75;;;;;;;;5041135;28;46209;-72
2022/04/16 04:21:52;;;;;;;;;30.25;24.25;;;;;;;;5054980;28;45550;-71
2022/04/16 04:24:17;;;;;;;;;27.00;25.00;;;;;;;;5048972;28;45355;-72
2022/04/16 04:26:43;;;;;;;;;23.00;21.00;;;;;;;;5050608;28;45385;-71
2022/04/16 04:29:08;;;;;;;;;27.75;24.00;;;;;;;;5040460;28;45396;-70
2022/04/16 04:31:33;;;;;;;;;26.00;23.25;;;;;;;;5052800;28;45496;-70
2022/04/16 04:33:59;;;;;;;;;26.75;23.50;;;;;;;;5045881;28;45457;-71
2022/04/16 04:36:25;;;;;;;;;26.75;23.25;;;;;;;;5045743;28;45560;-72
2022/04/16 04:38:50;;;;;;;;;28.50;25.50;;;;;;;;5048337;28;45390;-72
2022/04/16 04:41:15;;;;;;;;;27.50;25.00;;;;;;;;5057624;28;45634;-72
2022/04/16 04:43:41;;;;;;;;;28.75;26.75;;;;;;;;5039381;28;45415;-71
2022/04/16 04:46:06;;;;;;;;;25.75;25.00;;;;;;;;5051564;28;45229;-71
2022/04/16 04:48:31;;;;;;;;;29.00;27.75;;;;;;;;5047908;28;45461;-72
2022/04/16 04:50:57;;;;;;;;;30.75;22.50;;;;;;;;5050726;28;45308;-72
2022/04/16 04:53:22;;;;;;;;;26.75;25.25;;;;;;;;5040027;28;45415;-70
2022/04/16 04:55:47;;;;;;;;;25.25;22.50;;;;;;;;5052996;28;45478;-70
2022/04/16 04:58:13;;;;;;;;;31.25;26.00;;;;;;;;5037278;28;45730;-70
2022/04/16 05:00:38;;;;;;;;;25.50;23.50;;;;;;;;5041330;28;45354;-72
2022/04/16 05:03:03;;;;;;;;;29.00;25.00;;;;;;;;5045161;28;45380;-72
2022/04/16 05:05:29;;;;;;;;;23.25;21.75;;;;;;;;5037054;28;45502;-70
2022/04/16 05:07:54;;;;;;;;;29.00;24.00;;;;;;;;5039981;28;46161;-70
2022/04/16 05:10:19;;;;;;;;;27.00;24.50;;;;;;;;5050146;28;45565;-70
2022/04/16 05:12:45;;;;;;;;;26.00;21.00;;;;;;;;5037444;28;45489;-70
2022/04/16 05:15:10;;;;;;;;;28.75;25.75;;;;;;;;5052385;28;45328;-70
2022/04/16 05:17:40;;;;;;;;;23.25;21.75;;;;;;;;5040171;28;45467;-70
2022/04/16 05:20:06;;;;;;;;;24.00;20.25;;;;;;;;5049734;28;45339;-70
2022/04/16 05:22:32;;;;;;;;;24.50;21.00;;;;;;;;5046870;28;45363;-71
2022/04/16 05:24:57;;;;;;;;;26.50;24.25;;;;;;;;5042089;28;45421;-71
2022/04/16 05:27:22;;;;;;;;;22.75;22.75;;;;;;;;5052300;28;45570;-71
2022/04/16 05:30:06;;;;;;;;;22.00;20.50;;;;;;;;5044226;28;45437;-71
2022/04/16 05:32:32;;;;;;;;;24.00;21.75;;;;;;;;5043421;28;45406;-71
2022/04/16 05:34:58;;;;;;;;;26.00;21.75;;;;;;;;5054219;28;45408;-71
2022/04/16 05:37:23;;;;;;;;;28.75;26.00;;;;;;;;5054251;28;45585;-72
2022/04/16 05:39:48;;;;;;;;;25.00;23.75;;;;;;;;5056928;28;45461;-71
2022/04/16 05:42:14;;;;;;;;;19.25;18.50;;;;;;;;5056602;28;45540;-71
2022/04/16 05:44:39;;;;;;;;;20.75;16.50;;;;;;;;5038128;28;45367;-71
2022/04/16 05:47:04;;;;;;;;;16.25;15.25;;;;;;;;5046294;28;46013;-70
2022/04/16 05:49:30;;;;;;;;;19.75;17.00;;;;;;;;5056015;28;45528;-71
2022/04/16 05:51:55;;;;;;;;;15.25;15.25;;;;;;;;5052060;28;45822;-70
2022/04/16 05:54:20;;;;;;;;;15.00;14.75;;;;;;;;5056166;28;45476;-69
2022/04/16 05:56:46;;;;;;;;;16.25;14.75;;;;;;;;5052586;28;45508;-69
2022/04/16 05:59:11;;;;;;;;;11.75;11.00;;;;;;;;5055345;28;45466;-69
2022/04/16 06:01:37;;;;;;;;;11.50;10.25;;;;;;;;5054889;28;45809;-69
2022/04/16 06:04:02;;;;;;;;;11.25;10.25;;;;;;;;5054940;28;45572;-71
2022/04/16 06:06:28;;;;;;;;;15.25;13.00;;;;;;;;5055355;28;46149;-69
2022/04/16 06:08:53;;;;;;;;;15.75;13.25;;;;;;;;5056102;28;45548;-70
2022/04/16 06:11:20;;;;;;;;;12.25;10.75;;;;;;;;5051783;28;45586;-71
2022/04/16 06:13:45;;;;;;;;;15.50;14.75;;;;;;;;5056302;28;45414;-70
2022/04/16 06:16:11;;;;;;;;;9.50;9.50;;;;;;;;5052492;28;46052;-71
2022/04/16 06:18:36;;;;;;;;;11.00;10.00;;;;;;;;5054823;28;45485;-70
2022/04/16 06:21:02;;;;;;;;;11.00;10.75;;;;;;;;5054186;28;45513;-71
2022/04/16 06:23:27;;;;;;;;;12.00;10.00;;;;;;;;5055575;28;45344;-71
2022/04/16 06:25:53;;;;;;;;;12.00;11.50;;;;;;;;5053748;28;46135;-71
2022/04/16 06:28:18;;;;;;;;;18.00;16.00;;;;;;;;5053725;28;45425;-71
2022/04/16 06:30:44;;;;;;;;;13.50;11.75;;;;;;;;5052154;28;45418;-69
2022/04/16 06:33:09;;;;;;;;;10.50;10.50;;;;;;;;5055143;28;46117;-70
2022/04/16 06:35:34;;;;;;;;;10.00;10.00;;;;;;;;5054758;28;46508;-69
2022/04/16 06:38:00;;;;;;;;;12.50;11.25;;;;;;;;5052889;28;45404;-71
2022/04/16 06:40:25;;;;;;;;;13.25;12.50;;;;;;;;5054487;28;45525;-71
2022/04/16 06:42:52;;;;;;;;;12.75;12.75;;;;;;;;5055203;28;45434;-71
2022/04/16 06:45:18;;;;;;;;;13.25;11.75;;;;;;;;5051259;28;45595;-70
2022/04/16 06:47:43;;;;;;;;;11.00;10.50;;;;;;;;5052629;28;45597;-71
2022/04/16 06:50:09;;;;;;;;;14.00;11.00;;;;;;;;5052429;28;45880;-70
2022/04/16 06:52:35;;;;;;;;;12.00;11.25;;;;;;;;5052899;28;45461;-70
2022/04/16 06:55:00;;;;;;;;;11.25;11.00;;;;;;;;5054368;28;45543;-70
2022/04/16 06:57:26;;;;;;;;;12.00;12.00;;;;;;;;5051962;28;45962;-71
2022/04/16 06:59:51;;;;;;;;;31.75;31.25;;;;;;;;5054608;28;45503;-71
2022/04/16 07:02:16;;;;;;;;;11.00;11.00;;;;;;;;5053290;28;45906;-71
2022/04/16 07:04:42;;;;;;;;;10.25;10.00;;;;;;;;5052255;28;46411;-71
2022/04/16 07:07:10;;;;;;;;;12.00;12.00;;;;;;;;5054587;28;45460;-71
2022/04/16 07:09:40;;;;;;;;;14.50;12.75;;;;;;;;5054605;28;45443;-70
2022/04/16 07:12:07;;;;;;;;;14.00;12.00;;;;;;;;5051490;28;45385;-69
2022/04/16 07:14:33;;;;;;;;;18.00;17.25;;;;;;;;5052805;28;45480;-71
2022/04/16 07:16:59;;;;;;;;;23.25;22.50;;;;;;;;5051299;28;45532;-70
2022/04/16 07:19:24;;;;;;;;;14.00;13.25;;;;;;;;5052396;28;45314;-78
2022/04/16 07:21:49;;;;;;;;;16.75;14.00;;;;;;;;5052802;28;45557;-73
2022/04/16 07:24:15;;;;;;;;;12.50;12.00;;;;;;;;5052849;28;47857;-73
2022/04/16 07:26:40;;;;;;;;;18.50;15.00;;;;;;;;5051172;28;45845;-70
2022/04/16 07:29:05;;;;;;;;;15.50;13.50;;;;;;;;5055780;28;45627;-70
2022/04/16 07:31:31;;;;;;;;;15.00;13.00;;;;;;;;5057748;28;45519;-69
2022/04/16 07:33:57;;;;;;;;;17.75;17.00;;;;;;;;5057683;28;45387;-74
2022/04/16 07:36:23;;;;;;;;;16.50;15.75;;;;;;;;5057347;28;45584;-68
2022/04/16 07:38:48;;;;;;;;;14.75;14.50;;;;;;;;5054548;28;45868;-73
2022/04/16 07:41:13;;;;;;;;;14.50;14.50;;;;;;;;5053041;28;45440;-73
2022/04/16 07:43:39;;;;;;;;;12.00;11.75;;;;;;;;4969919;27;45591;-73
2022/04/16 07:46:04;;;;;;;;;27.25;24.50;;;;;;;;5062910;28;45543;-72
2022/04/16 07:48:30;;;;;;;;;13.50;13.50;;;;;;;;5057961;28;45318;-73
2022/04/16 07:50:55;;;;;;;;;14.75;14.25;;;;;;;;5057652;28;45369;-68
2022/04/16 07:53:20;;;;;;;;;15.50;14.75;;;;;;;;5057174;28;46058;-72
2022/04/16 07:55:46;;;;;;;;;17.75;16.50;;;;;;;;5057058;28;45408;-72
2022/04/16 07:58:12;;;;;;;;;14.00;13.25;;;;;;;;5057543;28;46348;-71
2022/04/16 08:00:37;;;;;;;;;25.25;24.50;;;;;;;;5057698;28;45449;-71
2022/04/16 08:03:03;;;;;;;;;26.25;23.25;;;;;;;;5056062;28;47931;-71
2022/04/16 08:05:28;;;;;;;;;20.25;18.00;;;;;;;;5057317;28;45236;-71
2022/04/16 08:07:53;;;;;;;;;9.67;9.33;;;;;;;;5055418;28;45485;-68
2022/04/16 08:10:19;;;;;;;;;18.00;17.25;;;;;;;;5057672;28;45344;-71
2022/04/16 08:12:45;;;;;;;;;16.00;15.25;;;;;;;;5057626;28;45868;-71
2022/04/16 08:15:10;;;;;;;;;18.75;17.50;;;;;;;;5057185;28;45405;-71
2022/04/16 08:17:37;;;;;;;;;16.25;15.75;;;;;;;;5055169;28;45438;-71
2022/04/16 08:20:04;;;;;;;;;14.75;14.00;;;;;;;;5058081;28;45415;-70
2022/04/16 08:22:32;;;;;;;;;12.33;10.33;;;;;;;;5056968;28;45376;-68
2022/04/16 08:27:46;;;;;;;;;11.67;10.67;;;;;;;;5047579;28;45462;-71
2022/04/16 08:30:12;;;;;;;;;11.00;11.00;;;;;;;;5057980;28;45437;-69
2022/04/16 08:32:38;;;;;;;;;12.67;11.33;;;;;;;;5058025;28;45520;-72
2022/04/16 08:35:04;;;;;;;;;22.67;21.00;;;;;;;;5058200;28;45511;-71
2022/04/16 08:37:31;;;;;;;;;12.00;11.67;;;;;;;;5041123;28;45386;-69
2022/04/16 08:39:57;;;;;;;;;25.00;23.67;;;;;;;;5037648;28;45630;-68
2022/04/16 08:42:22;;;;;;;;;23.50;22.25;;;;;;;;5036469;28;46617;-71
2022/04/16 08:44:48;;;;;;;;;14.33;14.00;;;;;;;;5036909;28;45449;-69
2022/04/16 08:47:14;;;;;;;;;10.00;9.33;;;;;;;;5037163;28;45326;-69
2022/04/16 08:49:41;;;;;;;;;13.00;13.00;;;;;;;;5037684;28;45376;-69
2022/04/16 08:52:08;;;;;;;;;14.00;10.67;;;;;;;;5036112;28;46424;-70
2022/04/16 08:54:35;;;;;;;;;9.33;8.33;;;;;;;;5036982;28;45339;-69
2022/04/16 08:57:00;;;;;;;;;9.33;9.33;;;;;;;;5037166;28;45401;-70
2022/04/16 08:59:26;;;;;;;;;9.00;9.00;;;;;;;;5044995;28;45679;-71
2022/04/16 09:01:51;;;;;;;;;12.00;9.33;;;;;;;;5056875;28;45394;-70
2022/04/16 09:04:20;;;;;;;;;9.33;8.00;;;;;;;;5056987;28;45467;-71
2022/04/16 09:07:02;;;;;;;;;11.00;9.33;;;;;;;;5056900;28;45706;-71
2022/04/16 09:09:30;;;;;;;;;11.33;9.67;;;;;;;;5054397;28;45421;-70
2022/04/16 09:11:56;;;;;;;;;14.67;14.00;;;;;;;;5055463;28;45312;-68
2022/04/16 09:14:34;;;;;;;;;10.67;10.67;;;;;;;;5056110;28;45464;-71
2022/04/16 09:17:00;;;;;;;;;14.33;13.00;;;;;;;;5056435;28;45478;-72
2022/04/16 09:19:28;;;;;;;;;11.00;10.33;;;;;;;;5056441;28;45499;-72
2022/04/16 09:21:53;;;;;;;;;11.67;11.00;;;;;;;;5056935;28;46612;-72
2022/04/16 09:24:19;;;;;;;;;12.67;11.67;;;;;;;;5057082;28;45462;-69
2022/04/16 09:26:44;;;;;;;;;11.33;11.33;;;;;;;;5056829;28;45402;-69
2022/04/16 09:29:14;;;;;;;;;12.00;10.33;;;;;;;;5057296;28;45285;-69
2022/04/16 09:31:41;;;;;;;;;10.33;10.33;;;;;;;;5057318;28;45435;-72
2022/04/16 09:34:07;;;;;;;;;21.00;18.50;;;;;;;;5055727;28;45292;-71
2022/04/16 09:36:38;;;;;;;;;14.33;14.33;;;;;;;;5056156;28;45509;-69
2022/04/16 09:39:04;;;;;;;;;12.00;10.33;;;;;;;;5057330;28;45503;-69
2022/04/16 09:41:30;;;;;;;;;11.33;11.33;;;;;;;;5056429;28;45307;-69
2022/04/16 09:43:55;;;;;;;;;9.00;8.00;;;;;;;;5056771;28;45237;-69
2022/04/16 09:46:22;;;;;;;;;8.67;8.33;;;;;;;;5057002;28;45305;-69
2022/04/16 09:48:47;;;;;;;;;10.00;9.00;;;;;;;;5055652;28;45473;-69
2022/04/16 09:51:14;;;;;;;;;9.50;9.00;;;;;;;;5054374;28;45552;-70
2022/04/16 09:53:41;;;;;;;;;7.67;7.67;;;;;;;;5035905;28;45513;-70
2022/04/16 09:56:10;;;;;;;;;10.33;9.00;;;;;;;;5034715;28;45523;-70
2022/04/16 09:58:37;;;;;;;;;9.67;9.00;;;;;;;;5036112;28;45241;-70
2022/04/16 10:01:03;;;;;;;;;10.33;10.00;;;;;;;;5040398;28;46701;-70
2022/04/16 10:03:29;;;;;;;;;8.00;8.00;;;;;;;;5053481;28;45473;-71
2022/04/16 10:05:58;;;;;;;;;9.00;9.00;;;;;;;;5052160;28;45574;-71
2022/04/16 10:08:25;;;;;;;;;10.33;10.00;;;;;;;;5044145;28;45373;-72
2022/04/16 10:10:57;;;;;;;;;10.67;9.33;;;;;;;;5053704;28;45987;-71
2022/04/16 10:13:23;;;;;;;;;10.67;9.67;;;;;;;;5054452;28;45302;-71
2022/04/16 10:15:48;;;;;;;;;11.33;10.33;;;;;;;;5054426;28;45536;-70
2022/04/16 10:18:14;;;;;;;;;10.00;9.67;;;;;;;;5056711;28;45296;-70
2022/04/16 10:20:55;;;;;;;;;11.00;9.33;;;;;;;;5055741;28;46368;-72
2022/04/16 10:23:30;;;;;;;;;11.00;11.00;;;;;;;;5055315;28;45449;-69
2022/04/16 10:26:02;;;;;;;;;13.00;11.33;;;;;;;;5055327;28;45447;-69
2022/04/16 10:28:33;;;;;;;;;9.00;9.00;;;;;;;;5055601;28;45427;-71
2022/04/16 10:30:58;;;;;;;;;11.00;10.67;;;;;;;;5055738;28;45342;-68
2022/04/16 10:33:25;;;;;;;;;10.67;10.00;;;;;;;;5055529;28;45420;-71
2022/04/16 10:35:56;;;;;;;;;11.00;10.00;;;;;;;;5054770;28;45177;-69
2022/04/16 10:38:42;;;;;;;;;10.00;9.00;;;;;;;;5056288;28;45401;-71
2022/04/16 10:41:11;;;;;;;;;9.33;9.33;;;;;;;;5054864;28;46104;-69
2022/04/16 10:43:36;;;;;;;;;9.33;9.33;;;;;;;;5055338;28;45314;-69
2022/04/16 10:46:05;;;;;;;;;6.00;6.00;;;;;;;;5056241;28;45477;-68
2022/04/16 10:48:37;;;;;;;;;7.67;7.00;;;;;;;;5055518;28;45309;-69
2022/04/16 10:51:03;;;;;;;;;6.33;6.33;;;;;;;;5054975;28;45754;-69
2022/04/16 10:53:30;;;;;;;;;8.00;8.00;;;;;;;;5055219;28;45490;-70
2022/04/16 10:55:55;;;;;;;;;8.00;7.00;;;;;;;;5055218;28;45405;-69
2022/04/16 10:58:27;;;;;;;;;9.00;9.00;;;;;;;;5054269;28;45322;-70
2022/04/16 11:01:03;;;;;;;;;8.67;8.00;;;;;;;;5053309;28;46854;-69
2022/04/16 11:03:30;;;;;;;;;10.00;9.00;;;;;;;;5056605;28;45389;-69
2022/04/16 11:06:01;;;;;;;;;9.67;9.67;;;;;;;;5059103;28;45311;-70
2022/04/16 11:08:27;;;;;;;;;10.67;10.33;;;;;;;;5058963;28;45165;-68
2022/04/16 11:10:56;;;;;;;;;8.33;8.33;;;;;;;;5058653;28;45419;-69
2022/04/16 11:13:22;;;;;;;;;10.00;9.00;;;;;;;;5039630;28;45508;-68
2022/04/16 11:15:47;;;;;;;;;11.33;10.67;;;;;;;;5038694;28;45433;-70
2022/04/16 11:18:15;;;;;;;;;10.67;9.00;;;;;;;;5038889;28;45513;-69
2022/04/16 11:20:43;;;;;;;;;10.00;10.00;;;;;;;;5038454;28;46395;-69
2022/04/16 11:23:11;;;;;;;;;9.33;9.00;;;;;;;;5038258;28;45319;-68
2022/04/16 11:34:17;;;;;;;;;11.00;11.00;;;;;;;;5038200;28;45326;-69
2022/04/16 11:36:43;;;;;;;;;13.00;12.00;;;;;;;;5038359;28;45485;-71
2022/04/16 11:39:22;;;;;;;;;11.00;11.00;;;;;;;;5042516;28;45592;-69
2022/04/16 11:41:49;;;;;;;;;12.00;12.00;;;;;;;;5058675;28;46467;-69
2022/04/16 11:44:15;;;;;;;;;17.67;16.00;;;;;;;;5057790;28;45520;-69
2022/04/16 11:46:41;;;;;;;;;25.00;25.00;;;;;;;;5058247;28;45363;-68
2022/04/16 11:49:07;;;;;;;;;18.67;18.33;;;;;;;;5058492;28;45474;-68
2022/04/16 11:51:36;;;;;;;;;13.67;12.67;;;;;;;;5057990;28;45587;-68
2022/04/16 11:54:02;;;;;;;;;14.00;13.67;;;;;;;;5058312;28;45448;-68
2022/04/16 11:56:27;;;;;;;;;12.67;12.67;;;;;;;;5058492;28;45469;-68
2022/04/16 11:58:52;;;;;;;;;13.67;13.00;;;;;;;;5057876;28;45559;-68
2022/04/16 12:01:19;;;;;;;;;12.33;12.00;;;;;;;;5058469;28;46022;-68
2022/04/16 12:03:44;;;;;;;;;13.00;11.67;;;;;;;;5058102;28;45473;-68
2022/04/16 12:06:10;;;;;;;;;12.33;10.00;;;;;;;;5057466;28;45352;-68
2022/04/16 12:08:36;;;;;;;;;14.33;13.67;;;;;;;;5042374;28;45220;-68
2022/04/16 12:11:02;;;;;;;;;17.00;16.00;;;;;;;;5037295;28;46062;-68
2022/04/16 12:13:33;;;;;;;;;14.00;14.00;;;;;;;;5037531;28;45416;-71
2022/04/16 12:16:02;;;;;;;;;11.33;10.67;;;;;;;;5037993;28;45527;-68
2022/04/16 12:18:34;;;;;;;;;12.67;12.67;;;;;;;;5053423;28;45496;-68
2022/04/16 12:21:05;;;;;;;;;11.33;11.00;;;;;;;;5037935;28;45450;-71
2022/04/16 12:23:30;;;;;;;;;10.33;10.33;;;;;;;;5057803;28;45432;-69
2022/04/16 12:26:12;;;;;;;;;14.00;13.00;;;;;;;;5057935;28;45374;-68
2022/04/16 12:28:40;;;;;;;;;14.67;14.00;;;;;;;;5057051;28;45497;-71
2022/04/16 12:31:06;;;;;;;;;12.00;12.00;;;;;;;;5057941;28;45470;-68
2022/04/16 12:33:31;;;;;;;;;14.33;14.33;;;;;;;;5057638;28;45343;-69
2022/04/16 12:35:58;;;;;;;;;14.00;12.00;;;;;;;;5056961;28;45255;-70
2022/04/16 12:38:24;;;;;;;;;15.67;15.67;;;;;;;;5056535;28;46563;-69
2022/04/16 12:40:50;;;;;;;;;13.00;12.67;;;;;;;;5056998;28;45958;-69
2022/04/16 12:43:16;;;;;;;;;11.00;11.00;;;;;;;;5057494;28;45419;-68
2022/04/16 12:45:41;;;;;;;;;13.33;13.33;;;;;;;;5057484;28;45361;-68
2022/04/16 12:48:07;;;;;;;;;12.00;12.00;;;;;;;;5057764;28;45416;-70
2022/04/16 12:50:33;;;;;;;;;18.00;16.67;;;;;;;;5057283;28;45513;-68
2022/04/16 12:52:59;;;;;;;;;13.00;13.00;;;;;;;;5057432;28;45325;-68
2022/04/16 12:55:25;;;;;;;;;13.00;12.00;;;;;;;;5057821;28;45441;-69
2022/04/16 12:57:50;;;;;;;;;19.67;15.67;;;;;;;;5057783;28;45317;-68
2022/04/16 13:00:16;;;;;;;;;23.25;22.50;;;;;;;;5056845;28;45600;-70
2022/04/16 13:02:43;;;;;;;;;14.67;14.67;;;;;;;;5056945;28;45452;-68
2022/04/16 13:05:09;;;;;;;;;12.00;12.00;;;;;;;;5057393;28;45278;-69
2022/04/16 13:07:35;;;;;;;;;12.00;11.00;;;;;;;;5056509;28;45366;-68
2022/04/16 13:10:00;;;;;;;;;11.00;10.67;;;;;;;;5057296;28;46111;-68
2022/04/16 13:12:26;;;;;;;;;11.00;11.00;;;;;;;;5057656;28;45378;-68
2022/04/16 13:14:51;;;;;;;;;9.67;9.67;;;;;;;;5057755;28;45400;-68
2022/04/16 13:17:16;;;;;;;;;10.67;10.00;;;;;;;;5057221;28;45340;-70
2022/04/16 13:19:42;;;;;;;;;12.33;11.33;;;;;;;;5056617;28;46595;-69
2022/04/16 13:22:08;;;;;;;;;12.33;12.00;;;;;;;;5056612;28;45578;-68
2022/04/16 13:24:35;;;;;;;;;11.33;9.67;;;;;;;;5055783;28;45269;-68
2022/04/16 13:27:02;;;;;;;;;11.00;11.00;;;;;;;;5057221;28;45353;-68
2022/04/16 13:29:28;;;;;;;;;10.67;10.33;;;;;;;;5056838;28;46200;-68
2022/04/16 13:31:53;;;;;;;;;11.00;9.00;;;;;;;;5056607;28;45314;-68
2022/04/16 13:34:18;;;;;;;;;11.33;11.00;;;;;;;;5056576;28;45413;-68
2022/04/16 13:36:44;;;;;;;;;11.00;11.00;;;;;;;;5056271;28;45418;-71
2022/04/16 13:41:38;;;;;;;;;12.00;11.00;;;;;;;;5056640;28;45270;-72
2022/04/16 13:41:54;;;;;;;;;11.50;11.00;;;;;;;;5056463;28;45260;-71
2022/04/16 13:44:20;;;;;;;;;11.33;10.67;;;;;;;;5055122;28;45508;-72
2022/04/16 13:46:45;;;;;;;;;11.33;10.67;;;;;;;;5057488;28;45267;-71
2022/04/16 13:49:10;;;;;;;;;12.33;11.33;;;;;;;;5056383;28;45421;-69
2022/04/16 13:51:36;;;;;;;;;12.00;12.00;;;;;;;;5051464;28;45315;-70
2022/04/16 13:54:02;;;;;;;;;10.00;10.00;;;;;;;;5036945;28;45282;-71
2022/04/16 13:56:27;;;;;;;;;11.00;10.00;;;;;;;;5037046;28;45454;-68
2022/04/16 13:58:53;;;;;;;;;18.67;17.33;;;;;;;;5036155;28;46265;-68
2022/04/16 14:01:20;;;;;;;;;14.67;14.00;;;;;;;;5036624;28;45628;-68
2022/04/16 14:03:46;;;;;;;;;12.00;11.00;;;;;;;;5036417;28;45400;-68
2022/04/16 14:06:11;;;;;;;;;11.00;11.00;;;;;;;;5039966;28;45528;-69
2022/04/16 14:08:37;;;;;;;;;10.00;9.00;;;;;;;;5054325;28;45580;-69
2022/04/16 14:11:02;;;;;;;;;12.00;11.67;;;;;;;;5054240;28;45562;-69
2022/04/16 14:13:32;;;;;;;;;12.00;12.00;;;;;;;;5056264;28;45362;-71
2022/04/16 14:15:58;;;;;;;;;10.33;9.33;;;;;;;;5056206;28;45162;-68
2022/04/16 14:18:24;;;;;;;;;11.67;11.67;;;;;;;;5055492;28;45541;-68
2022/04/16 14:20:50;;;;;;;;;14.00;11.00;;;;;;;;5055090;28;45558;-69
2022/04/16 14:23:15;;;;;;;;;12.33;11.33;;;;;;;;5054423;28;45315;-69
2022/04/16 14:25:41;;;;;;;;;12.33;12.00;;;;;;;;5054435;28;45475;-71
2022/04/16 14:28:07;;;;;;;;;10.00;10.00;;;;;;;;5053850;28;47021;-68
2022/04/16 14:30:34;;;;;;;;;12.00;11.00;;;;;;;;5054324;28;45573;-70
2022/04/16 14:32:59;;;;;;;;;13.00;12.00;;;;;;;;5055059;28;45352;-71
2022/04/16 14:35:24;;;;;;;;;12.33;11.33;;;;;;;;5056271;28;45320;-70
2022/04/16 14:37:50;;;;;;;;;11.67;11.33;;;;;;;;5057931;28;46361;-68
2022/04/16 14:40:15;;;;;;;;;14.67;13.33;;;;;;;;5057304;28;45369;-68